createdAt,value
2022-11-27T00:16:43.553Z,100
2022-11-27T02:48:38.686Z,100
2022-11-27T03:17:42.569Z,100
2022-11-27T03:55:16.655Z,100
2022-11-27T04:23:47.707Z,100
2022-11-27T04:41:53.817Z,100
2022-11-27T04:50:56.888Z,100
2022-11-27T04:59:59.941Z,100
2022-11-27T05:09:02.998Z,100
2022-11-27T05:11:30.884Z,100
2022-11-27T05:28:30.994Z,100
2022-11-27T05:37:34.074Z,100
2022-11-27T06:17:02.883Z,100
2022-11-27T06:26:05.897Z,100
2022-11-27T06:44:12.013Z,100
2022-11-27T07:02:18.185Z,100
2022-11-27T07:13:15.832Z,100
2022-11-27T07:22:18.975Z,100
2022-11-27T07:30:49.186Z,100
2022-11-27T07:39:52.279Z,100
2022-11-27T08:37:27.509Z,100
2022-11-27T10:13:09.840Z,100
2022-11-27T11:54:37.107Z,100
2022-11-27T12:00:02.315Z,99.5
2022-11-27T12:02:27.510Z,98.9
2022-11-27T12:04:53.742Z,98.8
2022-11-27T12:07:19.780Z,97.3
2022-11-27T12:09:45.895Z,98.3
2022-11-27T12:12:11.969Z,96.5
2022-11-27T12:14:38.070Z,95.3
2022-11-27T12:17:04.179Z,92.7
2022-11-27T12:19:30.239Z,92.5
2022-11-27T12:21:56.316Z,91.4
2022-11-27T12:24:22.452Z,90.6
2022-11-27T12:26:48.385Z,90
2022-11-27T12:29:14.653Z,88.3
2022-11-27T12:31:40.704Z,86.8
2022-11-27T12:34:05.699Z,86
2022-11-27T12:36:31.949Z,85.5
2022-11-27T12:38:58.034Z,84.6
2022-11-27T12:41:24.076Z,83.6
2022-11-27T12:43:50.195Z,83.4
2022-11-27T12:46:16.289Z,82.3
2022-11-27T12:48:41.510Z,81.8
2022-11-27T12:51:06.459Z,81.6
2022-11-27T12:53:32.583Z,81.3
2022-11-27T12:55:58.774Z,80.8
2022-11-27T12:58:24.824Z,82
2022-11-27T13:00:50.937Z,82.2
2022-11-27T13:03:16.875Z,81.3
2022-11-27T13:05:43.135Z,80.3
2022-11-27T13:08:09.180Z,79.8
2022-11-27T13:10:35.335Z,79.9
2022-11-27T13:13:01.466Z,80.6
2022-11-27T13:15:27.521Z,80.9
2022-11-27T13:17:53.457Z,81.2
2022-11-27T13:20:19.622Z,80.5
2022-11-27T13:22:44.688Z,80.4
2022-11-27T13:25:10.766Z,80.8
2022-11-27T13:27:36.885Z,79.6
2022-11-27T13:30:02.945Z,79.5
2022-11-27T13:32:29.146Z,80
2022-11-27T13:34:55.238Z,78.9
2022-11-27T13:37:21.221Z,78.2
2022-11-27T13:39:46.335Z,78.5
2022-11-27T13:42:11.519Z,78.7
2022-11-27T13:44:37.602Z,80.6
2022-11-27T13:47:03.710Z,81.3
2022-11-27T13:49:29.754Z,82
2022-11-27T13:51:55.859Z,81
2022-11-27T13:54:21.989Z,79.6
2022-11-27T13:56:48.139Z,78.6
2022-11-27T13:59:14.129Z,78.5
2022-11-27T14:01:40.226Z,77.3
2022-11-27T14:04:06.333Z,76.9
2022-11-27T14:06:32.424Z,77.6
2022-11-27T14:08:58.524Z,78
2022-11-27T14:11:24.610Z,77.7
2022-11-27T14:13:49.721Z,78.2
2022-11-27T14:16:15.820Z,79.2
2022-11-27T14:18:41.938Z,81.3
2022-11-27T14:21:08.102Z,79.7
2022-11-27T14:23:34.188Z,79.7
2022-11-27T14:26:00.220Z,79.9
2022-11-27T14:28:26.334Z,78
2022-11-27T17:19:31.492Z,95
2022-11-27T17:24:23.294Z,92.8
2022-11-27T17:26:48.343Z,91.9
2022-11-27T17:29:14.468Z,91.4
2022-11-27T17:31:40.525Z,91.6
2022-11-27T17:34:06.604Z,91.5
2022-11-27T17:36:32.705Z,92.1
2022-11-27T17:38:58.940Z,91.3
2022-11-27T17:41:24.893Z,91
2022-11-27T17:43:51.002Z,91.4
2022-11-27T17:46:17.084Z,90.9
2022-11-27T17:48:43.171Z,90.5
2022-11-27T17:51:09.283Z,90.2
2022-11-27T17:53:35.361Z,90.2
2022-11-27T17:56:01.454Z,89.9
2022-11-27T17:58:26.573Z,90
2022-11-27T18:00:52.714Z,89.8
2022-11-27T18:03:18.776Z,90
2022-11-27T18:05:44.881Z,90.3
2022-11-27T18:10:37.059Z,90.1
2022-11-27T18:13:03.216Z,90.4
2022-11-27T18:15:28.282Z,90.3
2022-11-27T18:17:53.412Z,90.5
2022-11-27T18:20:19.476Z,90.4
2022-11-27T18:22:45.565Z,90.5
2022-11-27T18:25:11.677Z,90.7
2022-11-27T18:27:37.931Z,90.9
2022-11-27T18:30:03.856Z,91
2022-11-27T18:32:30.108Z,91.3
2022-11-27T18:34:56.201Z,91.2
2022-11-27T18:37:22.314Z,91.4
2022-11-27T18:39:48.478Z,91.7
2022-11-27T18:42:14.515Z,92
2022-11-27T18:44:40.557Z,92.3
2022-11-27T18:47:06.558Z,92.4
2022-11-27T18:49:31.667Z,93
2022-11-27T18:51:57.742Z,93.2
2022-11-27T18:54:23.826Z,93.3
2022-11-27T18:56:50.122Z,93.9
2022-11-27T18:59:16.084Z,93.9
2022-11-27T19:01:42.146Z,94.2
2022-11-27T19:04:08.244Z,94.5
2022-11-27T19:06:33.346Z,94.5
2022-11-27T19:08:58.563Z,100
2022-11-27T19:11:23.580Z,97.3
2022-11-27T19:13:48.694Z,93.3
2022-11-27T19:16:14.779Z,93.1
2022-11-27T19:18:40.892Z,93.6
2022-11-27T19:21:06.975Z,94.2
2022-11-27T19:23:33.084Z,93.6
2022-11-27T19:25:59.164Z,94.2
2022-11-27T19:28:25.267Z,94.9
2022-11-27T19:30:51.356Z,95.6
2022-11-27T19:33:17.504Z,95.9
2022-11-27T19:35:43.544Z,96.7
2022-11-27T19:38:09.636Z,96.8
2022-11-27T19:40:35.736Z,96.8
2022-11-27T19:43:01.834Z,96.8
2022-11-27T19:45:26.975Z,96.8
2022-11-27T19:47:53.054Z,96.9
2022-11-27T19:50:19.163Z,97.3
2022-11-27T19:52:45.241Z,97.3
2022-11-27T19:55:11.338Z,97
2022-11-27T19:57:37.431Z,97
2022-11-27T20:00:03.524Z,97.2
2022-11-27T20:02:28.717Z,96.6
2022-11-27T20:04:53.808Z,95.8
2022-11-27T20:07:18.884Z,95.8
2022-11-27T20:09:43.990Z,95.2
2022-11-27T20:12:09.099Z,95
2022-11-27T20:14:35.232Z,94.5
2022-11-27T20:17:01.309Z,94.7
2022-11-27T20:19:27.400Z,95.2
2022-11-27T20:21:53.493Z,95.6
2022-11-27T20:24:19.594Z,95.6
2022-11-27T20:26:45.683Z,94.6
2022-11-27T20:29:11.840Z,94.6
2022-11-27T20:31:37.880Z,94.8
2022-11-27T20:34:03.967Z,95.2
2022-11-27T20:36:30.138Z,94.9
2022-11-27T20:38:56.174Z,95.3
2022-11-27T20:41:22.276Z,94.9
2022-11-27T20:43:47.383Z,94.9
2022-11-27T20:46:13.537Z,95.5
2022-11-27T20:48:39.594Z,95.1
2022-11-27T20:51:05.655Z,95.4
2022-11-27T20:53:31.759Z,94.2
2022-11-27T20:55:57.869Z,93.8
2022-11-27T20:58:22.980Z,94.3
2022-11-27T21:03:14.198Z,95.5
2022-11-27T21:05:40.272Z,96
2022-11-27T21:08:05.396Z,96.7
2022-11-27T21:10:30.506Z,97
2022-11-27T21:12:56.594Z,97
2022-11-27T21:15:22.794Z,97.7
2022-11-27T21:17:48.805Z,97.9
2022-11-27T21:20:14.935Z,97.8
2022-11-27T21:22:40.997Z,97.8
2022-11-27T21:25:07.148Z,98.1
2022-11-27T21:27:33.174Z,98.4
2022-11-27T21:29:59.340Z,98.1
2022-11-27T21:32:25.426Z,97.8
2022-11-27T21:34:51.528Z,98.1
2022-11-27T21:37:17.631Z,98
2022-11-27T21:39:43.655Z,98.1
2022-11-27T21:42:08.772Z,97.5
2022-11-27T21:44:34.888Z,97.7
2022-11-27T21:47:01.035Z,97.5
2022-11-27T21:49:27.062Z,97.5
2022-11-27T21:51:53.147Z,97.9
2022-11-27T21:54:19.356Z,97.8
2022-11-27T21:56:45.324Z,97.9
2022-11-27T21:59:10.558Z,97.2
2022-11-27T22:01:35.622Z,97.2
2022-11-27T22:04:00.771Z,97.3
2022-11-27T22:06:25.890Z,96.4
2022-11-27T22:08:51.901Z,97
2022-11-27T22:11:18.006Z,96.9
2022-11-27T22:13:44.133Z,97.6
2022-11-27T22:16:10.219Z,97.8
2022-11-27T22:18:36.287Z,97.7
2022-11-27T22:21:02.370Z,98.3
2022-11-27T22:23:28.514Z,98.7
2022-11-27T22:25:54.564Z,98.2
2022-11-27T22:28:20.707Z,97.9
2022-11-27T22:30:46.756Z,98.1
2022-11-27T22:33:12.846Z,98.1
2022-11-27T22:35:38.939Z,97.9
2022-11-27T22:38:04.074Z,98.1
2022-11-27T22:40:30.154Z,97.8
2022-11-27T22:42:56.267Z,98.2
2022-11-27T22:45:22.384Z,98.4
2022-11-27T22:47:48.468Z,98.2
2022-11-27T22:50:14.549Z,98.3
2022-11-27T22:52:40.646Z,98.2
2022-11-27T22:55:05.820Z,97.9
2022-11-27T22:57:30.885Z,98.1
2022-11-27T22:59:56.005Z,98.4
2022-11-27T23:02:21.111Z,98.4
2022-11-27T23:04:47.226Z,98.3
2022-11-27T23:07:13.385Z,98.3
2022-11-27T23:09:39.388Z,97.9
2022-11-27T23:12:05.542Z,97.6
2022-11-27T23:14:31.597Z,97.8
2022-11-27T23:16:57.686Z,98
2022-11-27T23:19:23.807Z,97.9
2022-11-27T23:21:49.894Z,97.8
2022-11-27T23:24:15.994Z,97.7
2022-11-27T23:26:42.100Z,97.8
2022-11-27T23:29:08.191Z,97.6
2022-11-27T23:31:34.248Z,97.3
2022-11-27T23:33:59.385Z,97.5
2022-11-27T23:36:25.468Z,97.5
2022-11-27T23:38:51.572Z,96.4
2022-11-27T23:41:17.657Z,96.6
2022-11-27T23:43:43.750Z,96.6
2022-11-27T23:46:09.838Z,95.8
2022-11-27T23:48:35.940Z,94.9
2022-11-27T23:51:01.065Z,95.6
2022-11-27T23:53:26.180Z,95.3
2022-11-27T23:55:51.290Z,93.8
2022-11-27T23:58:16.411Z,94
